Schroeder, Minnesota
Current Conditions -  °F | °C
As of 2:34 PM on Saturday 20 Dec 2014 (Local Time) from KCKC Reporting Station
Haze Haze  
Wind Chill: 21°   Ceiling: 200
Heat Index: 27°   Visibility: 2.5mi
Dew Point: 23°   Wind: 5mph
Humidity: 86%   Direction: 160°SSE
Pressure: 30.07"   Gusts: NA
Location:  47.54°N, 90.89°W
Report Text: KCKC 202034Z AUTO 16004KT 2 1/2SM BR OVC002 M03/M05 A3007 RMK AO2
Loading
Personal Weather Stations






























Interactive Weather Map New forecast layout! Learn more

10-Day Weather Forecast

Advertisements
Track Severe Weather on mobile